Time;durP1;ratioP1;P1;durP2;ratioP2;P2;SDS_P1;SDS_P2;PMS_P1;PMS_P2;Temp;Humidity;BMP_temperature;BMP_pressure;BME280_temperature;BME280_humidity;BME280_pressure;Samples;Min_cycle;Max_cycle;Signal;HPM_P1;HPM_P2
2022/12/29 00:01:37;;;;;;;6.38;3.95;;;;;;;;;;5095635;28;20433;-85
2022/12/29 00:04:04;;;;;;;6.53;3.92;;;;;;;;;;5096402;28;20030;-86
2022/12/29 00:06:30;;;;;;;5.72;3.65;;;;;;;;;;5079322;28;20075;-85
2022/12/29 00:08:56;;;;;;;5.95;3.78;;;;;;;;;;5093444;28;20028;-85
2022/12/29 00:11:28;;;;;;;7.65;4.53;;;;;;;;;;5096286;28;20421;-86
2022/12/29 00:16:41;;;;;;;7.82;4.18;;;;;;;;;;5114798;28;20031;-86
2022/12/29 00:35:07;;;;;;;5.45;4.07;;;;;;;;;;5095905;28;20413;-86
2022/12/29 00:36:01;;;;;;;4.38;3.10;;;;;;;;;;5116861;28;20050;-86
2022/12/29 00:44:06;;;;;;;3.33;2.47;;;;;;;;;;5117698;28;20047;-87
2022/12/29 00:46:38;;;;;;;6.40;5.63;;;;;;;;;;5099649;28;20027;-85
2022/12/29 00:51:50;;;;;;;6.53;3.70;;;;;;;;;;5118418;28;20516;-87
2022/12/29 00:54:17;;;;;;;7.28;4.75;;;;;;;;;;5099225;28;20080;-87
2022/12/29 00:56:42;;;;;;;7.95;5.50;;;;;;;;;;5099985;28;20031;-89
2022/12/29 00:59:11;;;;;;;9.32;5.47;;;;;;;;;;5098028;28;20540;-87
2022/12/29 01:01:37;;;;;;;6.40;3.72;;;;;;;;;;5099557;28;20032;-86
2022/12/29 01:04:08;;;;;;;5.20;3.65;;;;;;;;;;5097867;28;20434;-86
2022/12/29 01:06:36;;;;;;;6.65;5.30;;;;;;;;;;5082889;28;20035;-86
2022/12/29 01:11:46;;;;;;;7.93;3.17;;;;;;;;;;5116839;28;20038;-85
2022/12/29 01:14:12;;;;;;;3.80;3.28;;;;;;;;;;5116824;28;20069;-85
2022/12/29 01:16:37;;;;;;;12.25;4.95;;;;;;;;;;5116669;28;20030;-87
2022/12/29 01:19:03;;;;;;;8.45;4.78;;;;;;;;;;5116704;28;20024;-85
2022/12/29 01:21:29;;;;;;;7.30;5.97;;;;;;;;;;5098309;28;20365;-86
2022/12/29 01:23:54;;;;;;;11.35;6.03;;;;;;;;;;5099265;28;20035;-85
2022/12/29 01:26:20;;;;;;;9.00;5.60;;;;;;;;;;5116025;28;20015;-85
2022/12/29 01:28:46;;;;;;;7.75;5.85;;;;;;;;;;5098190;28;20054;-85
2022/12/29 01:31:13;;;;;;;5.93;3.67;;;;;;;;;;5095866;28;20024;-85
2022/12/29 01:33:39;;;;;;;7.63;3.83;;;;;;;;;;5097534;28;20103;-85
2022/12/29 01:36:08;;;;;;;12.85;5.45;;;;;;;;;;5097573;28;20058;-86
2022/12/29 01:38:35;;;;;;;9.30;4.70;;;;;;;;;;5097694;28;20059;-86
2022/12/29 01:41:00;;;;;;;14.60;6.80;;;;;;;;;;5097970;28;20028;-84
2022/12/29 01:43:38;;;;;;;6.10;4.90;;;;;;;;;;5098594;28;20076;-86
2022/12/29 01:46:07;;;;;;;7.28;4.75;;;;;;;;;;5116066;28;20068;-87
2022/12/29 01:48:32;;;;;;;8.35;6.28;;;;;;;;;;5097514;28;20431;-85
2022/12/29 01:50:57;;;;;;;9.40;4.90;;;;;;;;;;5096478;28;20030;-85
2022/12/29 01:53:29;;;;;;;11.18;6.35;;;;;;;;;;5097974;28;20031;-86
2022/12/29 01:56:01;;;;;;;7.28;5.13;;;;;;;;;;5116794;28;20035;-86
2022/12/29 01:58:30;;;;;;;9.02;4.75;;;;;;;;;;5098656;28;20095;-86
2022/12/29 02:00:56;;;;;;;12.90;6.18;;;;;;;;;;5098204;28;20034;-88
2022/12/29 02:03:26;;;;;;;6.72;4.72;;;;;;;;;;5097820;28;20035;-86
2022/12/29 02:06:03;;;;;;;10.10;5.40;;;;;;;;;;5115864;28;20463;-88
2022/12/29 02:08:29;;;;;;;7.78;4.80;;;;;;;;;;5114347;28;20080;-86
2022/12/29 02:10:59;;;;;;;15.15;8.30;;;;;;;;;;5115713;28;20016;-87
2022/12/29 02:13:26;;;;;;;14.85;7.93;;;;;;;;;;5097089;28;20380;-87
2022/12/29 02:16:11;;;;;;;9.13;5.85;;;;;;;;;;5115428;28;20689;-87
2022/12/29 02:19:18;;;;;;;6.60;5.78;;;;;;;;;;5094345;28;20051;-87
2022/12/29 02:22:02;;;;;;;8.95;5.88;;;;;;;;;;5081566;28;20115;-86
2022/12/29 02:24:51;;;;;;;7.03;4.10;;;;;;;;;;5097411;28;20114;-86
2022/12/29 02:27:25;;;;;;;10.05;5.32;;;;;;;;;;5098403;28;20024;-88
2022/12/29 02:30:17;;;;;;;13.70;4.75;;;;;;;;;;5097856;28;20059;-87
2022/12/29 02:32:54;;;;;;;8.18;5.38;;;;;;;;;;5094217;28;20417;-88
2022/12/29 02:35:38;;;;;;;7.88;5.38;;;;;;;;;;5115924;28;20019;-87
2022/12/29 02:38:22;;;;;;;9.27;6.53;;;;;;;;;;5097702;28;20118;-88
2022/12/29 02:40:55;;;;;;;6.38;5.35;;;;;;;;;;5093478;28;20027;-87
2022/12/29 02:43:36;;;;;;;11.30;6.80;;;;;;;;;;5112912;28;20057;-85
2022/12/29 02:46:17;;;;;;;8.18;5.47;;;;;;;;;;5113897;28;20034;-85
2022/12/29 02:48:49;;;;;;;9.05;5.85;;;;;;;;;;5115138;28;20110;-86
2022/12/29 02:51:21;;;;;;;13.43;8.70;;;;;;;;;;5114398;28;20024;-87
2022/12/29 02:56:31;;;;;;;9.30;6.63;;;;;;;;;;5115011;28;20057;-86
2022/12/29 02:58:56;;;;;;;13.73;7.72;;;;;;;;;;5097363;28;20024;-86
2022/12/29 03:02:16;;;;;;;11.77;6.97;;;;;;;;;;5097158;28;20380;-85
2022/12/29 03:04:48;;;;;;;9.88;6.72;;;;;;;;;;5115084;28;20383;-86
2022/12/29 03:07:44;;;;;;;9.27;5.32;;;;;;;;;;5115123;28;20046;-86
2022/12/29 03:10:37;;;;;;;10.13;5.72;;;;;;;;;;5091604;28;20551;-86
2022/12/29 03:16:45;;;;;;;14.20;7.82;;;;;;;;;;5113730;28;20452;-85
2022/12/29 03:19:28;;;;;;;10.93;5.70;;;;;;;;;;5061567;28;20035;-86
2022/12/29 03:24:53;;;;;;;9.70;7.25;;;;;;;;;;5113349;28;20506;-85
2022/12/29 03:27:24;;;;;;;12.50;6.65;;;;;;;;;;5093191;28;20391;-85
2022/12/29 03:29:55;;;;;;;11.63;6.70;;;;;;;;;;5114198;28;20042;-85
2022/12/29 03:32:24;;;;;;;8.20;6.18;;;;;;;;;;5114612;28;20038;-85
2022/12/29 03:34:50;;;;;;;11.27;8.15;;;;;;;;;;5095369;28;20110;-85
2022/12/29 03:37:21;;;;;;;14.75;7.13;;;;;;;;;;5114447;28;20517;-84
2022/12/29 03:39:46;;;;;;;12.18;6.45;;;;;;;;;;5112072;28;20107;-85
2022/12/29 03:42:19;;;;;;;8.00;5.75;;;;;;;;;;5095792;28;20123;-85
2022/12/29 03:44:45;;;;;;;9.63;6.22;;;;;;;;;;5096274;28;20027;-85
2022/12/29 03:47:12;;;;;;;10.45;5.88;;;;;;;;;;5096002;28;20031;-85
2022/12/29 03:49:38;;;;;;;8.48;5.25;;;;;;;;;;5114205;28;20027;-84
2022/12/29 03:52:04;;;;;;;8.13;6.32;;;;;;;;;;5095528;28;20470;-84
2022/12/29 03:54:31;;;;;;;6.55;4.65;;;;;;;;;;5113825;28;20028;-85
2022/12/29 03:56:56;;;;;;;9.38;6.20;;;;;;;;;;5113300;28;20032;-85
2022/12/29 03:59:22;;;;;;;6.40;5.70;;;;;;;;;;5113222;28;20039;-85
2022/12/29 04:01:47;;;;;;;8.88;5.70;;;;;;;;;;5112355;28;20038;-84
2022/12/29 04:04:13;;;;;;;8.40;5.55;;;;;;;;;;5095776;28;20024;-84
2022/12/29 04:06:38;;;;;;;8.30;3.85;;;;;;;;;;5117266;28;20023;-84
2022/12/29 04:09:04;;;;;;;10.68;5.43;;;;;;;;;;5117480;28;20053;-85
2022/12/29 04:11:29;;;;;;;6.25;4.45;;;;;;;;;;5117448;28;20098;-85
2022/12/29 04:13:55;;;;;;;9.45;5.68;;;;;;;;;;5098669;28;20027;-84
2022/12/29 04:16:20;;;;;;;7.00;4.60;;;;;;;;;;5117169;28;20027;-85
2022/12/29 04:18:45;;;;;;;7.93;4.43;;;;;;;;;;5118069;28;20047;-86
2022/12/29 04:21:11;;;;;;;7.72;4.78;;;;;;;;;;5118331;28;20027;-84
2022/12/29 04:23:38;;;;;;;4.20;2.78;;;;;;;;;;5118335;28;20023;-86
2022/12/29 04:26:06;;;;;;;4.97;3.10;;;;;;;;;;5099997;28;20031;-84
2022/12/29 04:28:32;;;;;;;4.03;3.67;;;;;;;;;;5098106;28;20450;-85
2022/12/29 04:30:57;;;;;;;5.07;3.25;;;;;;;;;;5117584;28;20027;-85
2022/12/29 04:33:24;;;;;;;9.13;4.55;;;;;;;;;;5099317;28;20023;-87
2022/12/29 04:35:49;;;;;;;7.28;2.85;;;;;;;;;;5117521;28;20493;-85
2022/12/29 04:38:15;;;;;;;5.63;4.00;;;;;;;;;;5099124;28;20138;-86
2022/12/29 04:40:42;;;;;;;6.40;3.78;;;;;;;;;;5098851;28;20072;-85
2022/12/29 04:43:08;;;;;;;9.23;4.35;;;;;;;;;;5098976;28;20034;-86
2022/12/29 04:45:33;;;;;;;6.47;4.05;;;;;;;;;;5098590;28;20459;-85
2022/12/29 04:47:59;;;;;;;5.30;4.80;;;;;;;;;;5099067;28;20028;-85
2022/12/29 04:50:24;;;;;;;9.00;5.38;;;;;;;;;;5117601;28;20023;-85
2022/12/29 04:52:50;;;;;;;8.63;5.07;;;;;;;;;;5117328;28;20108;-85
2022/12/29 04:55:15;;;;;;;6.75;4.20;;;;;;;;;;5098509;28;20136;-84
2022/12/29 04:57:41;;;;;;;10.38;5.65;;;;;;;;;;5117448;28;20498;-85
2022/12/29 05:00:08;;;;;;;6.55;4.95;;;;;;;;;;5116335;28;20027;-86
2022/12/29 05:02:34;;;;;;;7.57;4.15;;;;;;;;;;5116763;28;20020;-86
2022/12/29 05:04:59;;;;;;;9.43;5.55;;;;;;;;;;5116062;28;20077;-86
2022/12/29 05:07:25;;;;;;;8.82;3.90;;;;;;;;;;5116105;28;20020;-84
2022/12/29 05:09:53;;;;;;;6.30;4.97;;;;;;;;;;5114745;28;20033;-86
2022/12/29 05:12:19;;;;;;;7.18;6.25;;;;;;;;;;5096215;28;20020;-86
2022/12/29 05:14:44;;;;;;;8.57;5.60;;;;;;;;;;5114486;28;20097;-85
2022/12/29 05:20:31;;;;;;;5.60;4.45;;;;;;;;;;5114479;28;20096;-87
2022/12/29 05:22:57;;;;;;;9.80;6.18;;;;;;;;;;5115100;28;19969;-84
2022/12/29 05:25:22;;;;;;;14.23;7.20;;;;;;;;;;5096332;28;20020;-85
2022/12/29 05:27:48;;;;;;;9.18;4.88;;;;;;;;;;5114841;28;20102;-86
2022/12/29 05:30:13;;;;;;;7.85;4.55;;;;;;;;;;5095866;28;20058;-84
2022/12/29 05:32:38;;;;;;;10.15;7.10;;;;;;;;;;5114146;28;20020;-86
2022/12/29 05:35:04;;;;;;;8.57;7.15;;;;;;;;;;5113152;28;20099;-87
2022/12/29 05:37:30;;;;;;;7.03;5.93;;;;;;;;;;5113656;28;20023;-86
2022/12/29 05:39:55;;;;;;;9.73;5.70;;;;;;;;;;5114220;28;20054;-86
2022/12/29 05:42:21;;;;;;;11.88;6.18;;;;;;;;;;5113157;28;20020;-85
2022/12/29 05:44:46;;;;;;;10.68;6.43;;;;;;;;;;5095329;28;20023;-85
2022/12/29 05:47:11;;;;;;;8.95;5.32;;;;;;;;;;5095507;28;20039;-85
2022/12/29 05:49:37;;;;;;;6.88;4.25;;;;;;;;;;5112632;28;20477;-87
2022/12/29 05:52:45;;;;;;;14.88;8.63;;;;;;;;;;5114343;28;20098;-86
2022/12/29 05:55:11;;;;;;;9.32;5.35;;;;;;;;;;5112364;28;20040;-86
2022/12/29 05:57:37;;;;;;;7.78;6.22;;;;;;;;;;5094870;28;21711;-86
2022/12/29 06:00:05;;;;;;;11.90;6.40;;;;;;;;;;5114377;28;20097;-87
2022/12/29 06:02:30;;;;;;;12.50;7.28;;;;;;;;;;5111539;28;20020;-84
2022/12/29 06:04:56;;;;;;;12.00;6.72;;;;;;;;;;5095373;28;20068;-87
2022/12/29 06:07:21;;;;;;;11.80;7.82;;;;;;;;;;5114237;28;20068;-85
2022/12/29 06:09:46;;;;;;;8.35;5.82;;;;;;;;;;5095298;28;20033;-85
2022/12/29 06:12:12;;;;;;;12.30;7.40;;;;;;;;;;5095279;28;20019;-84
2022/12/29 06:14:37;;;;;;;12.23;6.95;;;;;;;;;;5095418;28;20034;-84
2022/12/29 06:17:03;;;;;;;10.82;6.65;;;;;;;;;;5113148;28;20027;-84
2022/12/29 06:19:28;;;;;;;10.13;5.88;;;;;;;;;;5113790;28;20106;-85
2022/12/29 06:21:54;;;;;;;7.28;5.95;;;;;;;;;;5112683;28;20044;-84
2022/12/29 06:24:20;;;;;;;9.23;5.07;;;;;;;;;;5113920;28;20068;-86
2022/12/29 06:26:45;;;;;;;10.10;6.78;;;;;;;;;;5113161;28;20421;-85
2022/12/29 06:29:13;;;;;;;5.95;4.82;;;;;;;;;;5112829;28;20043;-85
2022/12/29 06:31:38;;;;;;;6.80;6.20;;;;;;;;;;5111925;28;20066;-85
2022/12/29 06:34:06;;;;;;;9.77;6.85;;;;;;;;;;5095610;28;20059;-85
2022/12/29 06:36:31;;;;;;;12.55;8.35;;;;;;;;;;5112623;28;20478;-85
2022/12/29 06:38:56;;;;;;;10.23;6.82;;;;;;;;;;5112726;28;20058;-84
2022/12/29 06:41:22;;;;;;;12.27;7.50;;;;;;;;;;5093647;28;20376;-85
2022/12/29 06:43:47;;;;;;;12.07;6.78;;;;;;;;;;5094840;28;20027;-85
2022/12/29 06:46:13;;;;;;;13.23;8.55;;;;;;;;;;5113170;28;20019;-84
2022/12/29 06:48:38;;;;;;;13.90;8.80;;;;;;;;;;5094657;28;20463;-85
2022/12/29 06:51:04;;;;;;;12.32;7.07;;;;;;;;;;5113219;28;20030;-85
2022/12/29 06:53:29;;;;;;;8.82;6.78;;;;;;;;;;5112862;28;20019;-84
2022/12/29 06:55:56;;;;;;;16.67;9.75;;;;;;;;;;5097447;28;20076;-87
2022/12/29 06:58:22;;;;;;;15.60;8.52;;;;;;;;;;5095925;28;20019;-86
2022/12/29 07:00:48;;;;;;;14.50;9.90;;;;;;;;;;5094452;28;20026;-86
2022/12/29 07:03:13;;;;;;;12.77;8.90;;;;;;;;;;5095229;28;20085;-85
2022/12/29 07:05:38;;;;;;;10.57;8.48;;;;;;;;;;5094450;28;20050;-86
2022/12/29 07:08:04;;;;;;;15.43;9.30;;;;;;;;;;5094160;28;20111;-89
2022/12/29 07:26:37;;;;;;;19.17;9.43;;;;;;;;;;5107645;27;20408;-86
2022/12/29 07:29:03;;;;;;;14.93;9.90;;;;;;;;;;5088118;28;20455;-86
2022/12/29 07:31:30;;;;;;;15.20;9.55;;;;;;;;;;5086334;28;20379;-86
2022/12/29 07:33:55;;;;;;;10.77;8.35;;;;;;;;;;5086830;28;20052;-86
2022/12/29 07:36:21;;;;;;;9.82;7.20;;;;;;;;;;5087561;28;20166;-86
2022/12/29 07:38:46;;;;;;;13.23;7.22;;;;;;;;;;5085847;28;20029;-89
2022/12/29 07:41:12;;;;;;;15.63;10.07;;;;;;;;;;5088456;28;20028;-84
2022/12/29 07:43:37;;;;;;;12.88;7.40;;;;;;;;;;5085841;28;20035;-86
2022/12/29 07:46:03;;;;;;;10.85;6.70;;;;;;;;;;5088415;28;20032;-86
2022/12/29 07:48:28;;;;;;;10.32;7.68;;;;;;;;;;5088281;28;20028;-85
2022/12/29 07:50:53;;;;;;;9.45;6.95;;;;;;;;;;5086385;28;20028;-86
2022/12/29 07:53:19;;;;;;;14.40;7.78;;;;;;;;;;5086976;28;20160;-87
2022/12/29 07:55:45;;;;;;;12.82;7.18;;;;;;;;;;5083684;28;20021;-88
2022/12/29 07:58:10;;;;;;;13.25;7.25;;;;;;;;;;5087302;28;20387;-86
2022/12/29 08:00:37;;;;;;;15.88;8.30;;;;;;;;;;5085182;28;20024;-88
2022/12/29 08:03:03;;;;;;;10.70;7.22;;;;;;;;;;5086740;28;20024;-85
2022/12/29 08:05:30;;;;;;;11.63;7.93;;;;;;;;;;5086194;28;20036;-87
2022/12/29 08:07:56;;;;;;;8.23;6.72;;;;;;;;;;5087067;28;20036;-87
2022/12/29 08:10:22;;;;;;;25.80;15.00;;;;;;;;;;5088264;28;20031;-87
2022/12/29 08:12:47;;;;;;;9.02;5.65;;;;;;;;;;5088312;28;20032;-88
2022/12/29 08:15:12;;;;;;;19.55;9.95;;;;;;;;;;5087801;28;20028;-87
2022/12/29 08:17:38;;;;;;;11.18;8.27;;;;;;;;;;5087263;28;20024;-87
2022/12/29 08:20:04;;;;;;;11.70;8.27;;;;;;;;;;5104469;28;20030;-90
2022/12/29 08:22:30;;;;;;;11.50;6.43;;;;;;;;;;5087687;28;20048;-88
2022/12/29 08:24:55;;;;;;;11.18;6.72;;;;;;;;;;5085740;28;20404;-88
2022/12/29 08:27:20;;;;;;;9.57;5.75;;;;;;;;;;5091910;28;20437;-87
2022/12/29 08:29:46;;;;;;;9.35;7.18;;;;;;;;;;5071493;28;20024;-89
2022/12/29 08:32:12;;;;;;;11.00;8.98;;;;;;;;;;5074235;28;20021;-88
2022/12/29 08:34:37;;;;;;;11.88;7.43;;;;;;;;;;5070314;28;20380;-86
2022/12/29 08:37:03;;;;;;;13.70;7.80;;;;;;;;;;5072818;28;20037;-87
2022/12/29 08:39:31;;;;;;;19.20;8.95;;;;;;;;;;5074877;28;20028;-90
2022/12/29 08:41:56;;;;;;;12.30;8.75;;;;;;;;;;5076037;28;20468;-86
2022/12/29 08:44:30;;;;;;;10.13;6.82;;;;;;;;;;5075333;28;20035;-93
2022/12/29 08:46:56;;;;;;;15.20;9.75;;;;;;;;;;5075465;28;20507;-89
2022/12/29 08:49:21;;;;;;;12.35;8.07;;;;;;;;;;5074453;28;20024;-88
2022/12/29 08:51:47;;;;;;;14.82;10.00;;;;;;;;;;5074952;28;20032;-88
2022/12/29 08:54:12;;;;;;;13.27;8.30;;;;;;;;;;5090422;28;20017;-88
2022/12/29 08:56:38;;;;;;;15.75;9.70;;;;;;;;;;5074110;28;20036;-90
2022/12/29 08:59:03;;;;;;;11.40;8.57;;;;;;;;;;5072759;28;20025;-88
2022/12/29 09:01:30;;;;;;;11.45;7.95;;;;;;;;;;5074697;28;20087;-90
2022/12/29 09:03:55;;;;;;;14.23;8.75;;;;;;;;;;5087893;28;20020;-88
2022/12/29 09:06:21;;;;;;;11.82;8.35;;;;;;;;;;5075377;28;20529;-91
2022/12/29 09:08:46;;;;;;;10.57;8.25;;;;;;;;;;5075272;28;20031;-89
2022/12/29 09:11:22;;;;;;;13.07;8.60;;;;;;;;;;5073645;28;20032;-89
2022/12/29 09:13:48;;;;;;;13.82;8.57;;;;;;;;;;5074728;28;20057;-91
2022/12/29 09:16:15;;;;;;;12.60;8.25;;;;;;;;;;5073653;28;20101;-90
2022/12/29 09:18:41;;;;;;;11.60;7.05;;;;;;;;;;5077434;28;20105;-90
2022/12/29 09:21:07;;;;;;;11.82;8.27;;;;;;;;;;5075250;28;20029;-86
2022/12/29 09:23:33;;;;;;;9.05;6.70;;;;;;;;;;5073687;28;20031;-88
2022/12/29 09:25:59;;;;;;;13.93;8.27;;;;;;;;;;5075647;28;20392;-86
2022/12/29 09:28:25;;;;;;;11.48;7.72;;;;;;;;;;5087518;28;20030;-84
2022/12/29 09:30:51;;;;;;;13.90;7.75;;;;;;;;;;5075686;28;20024;-90
2022/12/29 09:33:17;;;;;;;14.48;9.50;;;;;;;;;;5075087;28;20047;-88
2022/12/29 09:35:44;;;;;;;11.77;7.40;;;;;;;;;;5074527;28;20052;-87
2022/12/29 09:38:09;;;;;;;12.90;8.20;;;;;;;;;;5102106;28;20506;-86
2022/12/29 09:40:35;;;;;;;16.55;8.48;;;;;;;;;;5076063;28;20020;-84
2022/12/29 09:43:19;;;;;;;10.20;7.20;;;;;;;;;;5075891;28;20433;-87
2022/12/29 09:45:53;;;;;;;10.73;7.43;;;;;;;;;;5069896;28;20020;-88
2022/12/29 09:48:33;;;;;;;10.38;7.00;;;;;;;;;;5070562;28;20021;-86
2022/12/29 09:51:03;;;;;;;11.20;8.23;;;;;;;;;;5071137;28;20024;-87
2022/12/29 09:53:44;;;;;;;14.38;8.43;;;;;;;;;;5089984;28;20024;-85
2022/12/29 09:56:21;;;;;;;12.70;8.68;;;;;;;;;;5104274;28;20033;-87
2022/12/29 09:59:02;;;;;;;10.23;6.45;;;;;;;;;;5071584;28;20023;-85
2022/12/29 10:01:31;;;;;;;12.07;8.02;;;;;;;;;;5104348;28;20035;-84
2022/12/29 10:04:04;;;;;;;11.75;9.10;;;;;;;;;;5072912;28;20024;-85
2022/12/29 10:07:18;;;;;;;11.20;7.68;;;;;;;;;;5073692;28;20048;-84
2022/12/29 10:10:05;;;;;;;13.98;9.13;;;;;;;;;;5029416;28;20041;-86
2022/12/29 10:13:05;;;;;;;13.68;7.22;;;;;;;;;;5071527;28;20024;-85
2022/12/29 10:15:57;;;;;;;12.23;8.45;;;;;;;;;;5070255;28;20020;-84
2022/12/29 10:18:30;;;;;;;14.73;9.45;;;;;;;;;;5069552;28;20033;-85
2022/12/29 10:21:16;;;;;;;12.85;7.88;;;;;;;;;;5070684;28;20024;-85
2022/12/29 10:23:52;;;;;;;14.57;8.40;;;;;;;;;;5087840;28;20380;-85
2022/12/29 10:26:22;;;;;;;14.10;10.10;;;;;;;;;;5086121;28;20495;-86
2022/12/29 10:28:54;;;;;;;14.85;8.52;;;;;;;;;;5071021;28;20017;-84
2022/12/29 10:31:27;;;;;;;9.00;8.05;;;;;;;;;;5103876;28;20029;-85
2022/12/29 10:33:58;;;;;;;11.90;8.18;;;;;;;;;;5071415;28;20031;-84
2022/12/29 10:36:40;;;;;;;15.25;7.93;;;;;;;;;;5070320;28;20384;-86
2022/12/29 10:39:23;;;;;;;11.80;9.00;;;;;;;;;;5072603;28;20028;-89
2022/12/29 10:42:21;;;;;;;17.52;9.13;;;;;;;;;;5065464;28;20028;-86
2022/12/29 10:44:47;;;;;;;15.48;9.57;;;;;;;;;;5053887;28;20036;-86
2022/12/29 10:47:21;;;;;;;16.83;10.07;;;;;;;;;;5071621;28;20111;-88
2022/12/29 10:49:48;;;;;;;17.08;8.23;;;;;;;;;;5071471;28;20384;-89
2022/12/29 10:52:17;;;;;;;15.82;10.48;;;;;;;;;;5074326;28;20028;-89
2022/12/29 10:55:38;;;;;;;11.70;8.70;;;;;;;;;;5073366;28;20020;-88
2022/12/29 10:58:12;;;;;;;11.07;8.85;;;;;;;;;;5058882;28;20066;-88
2022/12/29 11:00:37;;;;;;;12.75;9.18;;;;;;;;;;5089192;28;20028;-89
2022/12/29 11:03:12;;;;;;;12.80;8.02;;;;;;;;;;5074413;28;20112;-89
2022/12/29 11:05:52;;;;;;;11.35;7.95;;;;;;;;;;5072198;28;20020;-89
2022/12/29 11:08:21;;;;;;;13.90;9.98;;;;;;;;;;5070490;28;20145;-87
2022/12/29 11:11:01;;;;;;;20.42;9.90;;;;;;;;;;5070293;28;20086;-89
2022/12/29 11:13:31;;;;;;;;;;;;;;;;;;5073159;28;20035;-86
2022/12/29 11:15:56;;;;;;;11.75;7.13;;;;;;;;;;5073734;28;20200;-87
2022/12/29 11:18:27;;;;;;;12.68;8.73;;;;;;;;;;5088605;28;20467;-88
2022/12/29 11:20:55;;;;;;;11.70;6.13;;;;;;;;;;5086794;28;20069;-89
2022/12/29 11:23:28;;;;;;;12.63;7.93;;;;;;;;;;5088983;28;20527;-89
2022/12/29 11:26:12;;;;;;;10.07;7.47;;;;;;;;;;5071088;28;20452;-90
2022/12/29 11:28:39;;;;;;;14.27;8.55;;;;;;;;;;5073112;28;20027;-89
2022/12/29 11:31:06;;;;;;;14.65;9.45;;;;;;;;;;5068426;28;20032;-88
2022/12/29 11:33:34;;;;;;;12.77;8.25;;;;;;;;;;5072308;28;20103;-86
2022/12/29 11:36:23;;;;;;;15.40;10.32;;;;;;;;;;5069483;28;20020;-87
2022/12/29 11:38:54;;;;;;;11.70;8.30;;;;;;;;;;5070329;28;20364;-87
2022/12/29 11:41:23;;;;;;;10.93;6.93;;;;;;;;;;5071606;28;20037;-87
2022/12/29 11:43:49;;;;;;;13.52;8.35;;;;;;;;;;5102619;28;20537;-87
2022/12/29 11:46:18;;;;;;;11.85;8.73;;;;;;;;;;5067154;28;20029;-86
2022/12/29 11:48:45;;;;;;;12.43;7.25;;;;;;;;;;5066417;28;20028;-86
2022/12/29 11:51:11;;;;;;;13.55;8.30;;;;;;;;;;5073792;28;20391;-87
2022/12/29 11:53:45;;;;;;;18.13;9.65;;;;;;;;;;5072458;28;20028;-85
2022/12/29 11:56:15;;;;;;;13.25;8.70;;;;;;;;;;5069039;28;20035;-83
2022/12/29 11:58:40;;;;;;;17.13;8.50;;;;;;;;;;5071358;28;20490;-86
2022/12/29 12:01:18;;;;;;;17.10;9.20;;;;;;;;;;5071485;28;20075;-86
2022/12/29 12:04:10;;;;;;;11.45;8.75;;;;;;;;;;5069901;28;20036;-86
2022/12/29 12:06:50;;;;;;;11.27;7.47;;;;;;;;;;5074659;28;20032;-85
2022/12/29 12:09:39;;;;;;;17.00;8.98;;;;;;;;;;5069217;28;20764;-85
2022/12/29 12:12:08;;;;;;;12.40;7.40;;;;;;;;;;5070475;28;20032;-86
2022/12/29 12:14:46;;;;;;;12.70;9.20;;;;;;;;;;5073070;28;20407;-84
2022/12/29 12:17:23;;;;;;;13.15;7.25;;;;;;;;;;5075539;28;20029;-84
2022/12/29 12:19:58;;;;;;;11.25;7.07;;;;;;;;;;5071983;28;20024;-85
2022/12/29 12:22:38;;;;;;;11.55;7.03;;;;;;;;;;5069997;28;20457;-85
2022/12/29 12:25:09;;;;;;;12.88;7.93;;;;;;;;;;5070248;28;20434;-86
2022/12/29 12:27:52;;;;;;;12.32;7.65;;;;;;;;;;5089761;28;20039;-84
2022/12/29 12:30:25;;;;;;;10.82;8.20;;;;;;;;;;5106653;28;20056;-84
2022/12/29 12:32:56;;;;;;;11.82;7.00;;;;;;;;;;5073882;28;20021;-85
2022/12/29 12:35:43;;;;;;;14.02;9.70;;;;;;;;;;5074460;28;20017;-85
2022/12/29 12:38:14;;;;;;;13.05;8.45;;;;;;;;;;5074154;28;20107;-85
2022/12/29 12:40:51;;;;;;;15.10;9.25;;;;;;;;;;5073547;28;20488;-85
2022/12/29 12:43:54;;;;;;;13.60;7.38;;;;;;;;;;5072564;28;20091;-86
2022/12/29 12:46:23;;;;;;;12.35;7.43;;;;;;;;;;5089686;28;20024;-86
2022/12/29 12:49:33;;;;;;;13.63;8.88;;;;;;;;;;5073382;28;20021;-86
2022/12/29 12:52:37;;;;;;;9.50;6.20;;;;;;;;;;5065732;28;20051;-85
2022/12/29 12:55:33;;;;;;;14.10;8.63;;;;;;;;;;5065626;28;20074;-85
2022/12/29 12:58:17;;;;;;;11.45;7.75;;;;;;;;;;5086419;28;20387;-85
2022/12/29 13:00:55;;;;;;;8.73;5.57;;;;;;;;;;5074113;28;20032;-84
2022/12/29 13:03:45;;;;;;;8.77;6.45;;;;;;;;;;5073864;28;20056;-86
2022/12/29 13:06:49;;;;;;;9.57;6.35;;;;;;;;;;5070204;28;21605;-84
2022/12/29 13:09:17;;;;;;;8.82;6.47;;;;;;;;;;5071155;28;20025;-86
2022/12/29 13:12:07;;;;;;;9.80;7.32;;;;;;;;;;5073316;28;20025;-86
2022/12/29 13:14:41;;;;;;;;;;;;;;;;;;5073632;28;20038;-86
2022/12/29 13:17:17;;;;;;;7.38;5.97;;;;;;;;;;5089261;28;20321;-85
2022/12/29 13:19:49;;;;;;;12.93;6.20;;;;;;;;;;5071576;28;20551;-85
2022/12/29 13:22:52;;;;;;;9.75;5.60;;;;;;;;;;5074695;28;20028;-86
2022/12/29 13:25:33;;;;;;;9.05;6.38;;;;;;;;;;5028930;28;20531;-87
2022/12/29 13:28:01;;;;;;;10.52;7.28;;;;;;;;;;5089353;28;20032;-82
2022/12/29 13:30:42;;;;;;;6.45;5.60;;;;;;;;;;5088578;28;20054;-82
2022/12/29 13:33:21;;;;;;;12.00;6.10;;;;;;;;;;5073532;28;20028;-87
2022/12/29 13:35:59;;;;;;;7.95;5.35;;;;;;;;;;5070622;28;20024;-85
2022/12/29 13:38:31;;;;;;;10.68;7.07;;;;;;;;;;5089753;28;20024;-84
2022/12/29 13:41:01;;;;;;;7.85;4.57;;;;;;;;;;5074877;28;20472;-86
2022/12/29 13:43:30;;;;;;;11.05;5.63;;;;;;;;;;5090076;28;20024;-85
2022/12/29 13:46:02;;;;;;;14.00;6.45;;;;;;;;;;5073130;28;20075;-85
2022/12/29 13:48:44;;;;;;;5.38;4.35;;;;;;;;;;5074466;28;20028;-85
2022/12/29 13:51:11;;;;;;;7.82;5.30;;;;;;;;;;5081541;28;20084;-86
2022/12/29 13:54:02;;;;;;;6.70;5.55;;;;;;;;;;5072907;28;20040;-84
2022/12/29 13:56:49;;;;;;;10.77;4.10;;;;;;;;;;5072493;28;20024;-85
2022/12/29 13:59:40;;;;;;;6.03;3.88;;;;;;;;;;5072865;28;20028;-85
2022/12/29 14:02:17;;;;;;;9.32;5.45;;;;;;;;;;5074447;28;20036;-85
2022/12/29 14:04:57;;;;;;;6.60;4.10;;;;;;;;;;5088677;28;20066;-86
2022/12/29 14:07:23;;;;;;;12.35;5.65;;;;;;;;;;5074707;28;20027;-85
2022/12/29 14:09:51;;;;;;;7.40;4.75;;;;;;;;;;5073791;28;20028;-86
2022/12/29 14:12:29;;;;;;;8.80;5.38;;;;;;;;;;5087632;28;20028;-85
2022/12/29 14:15:13;;;;;;;6.50;4.47;;;;;;;;;;5071653;28;20442;-89
2022/12/29 14:17:40;;;;;;;9.80;5.68;;;;;;;;;;5103087;28;20020;-85
2022/12/29 14:20:20;;;;;;;12.73;6.45;;;;;;;;;;5071590;28;20028;-87
2022/12/29 14:23:09;;;;;;;8.60;5.40;;;;;;;;;;5073338;28;20031;-87
2022/12/29 14:26:00;;;;;;;10.05;5.10;;;;;;;;;;5086942;28;20044;-85
2022/12/29 14:28:31;;;;;;;15.10;8.82;;;;;;;;;;5103773;28;20020;-87
2022/12/29 14:30:59;;;;;;;9.02;6.32;;;;;;;;;;5070234;28;20536;-87
2022/12/29 14:33:28;;;;;;;6.57;4.85;;;;;;;;;;5100883;28;20691;-87
2022/12/29 14:35:54;;;;;;;7.38;4.68;;;;;;;;;;5067573;28;20447;-88
2022/12/29 14:38:26;;;;;;;14.38;4.38;;;;;;;;;;5070704;28;20021;-88
2022/12/29 14:40:52;;;;;;;24.20;5.20;;;;;;;;;;5068513;28;20081;-86
2022/12/29 14:43:25;;;;;;;5.78;4.30;;;;;;;;;;5071550;28;20039;-85
2022/12/29 14:46:00;;;;;;;11.07;4.88;;;;;;;;;;5087253;28;20024;-86
2022/12/29 14:48:31;;;;;;;7.78;3.97;;;;;;;;;;5087339;28;20021;-87
2022/12/29 14:50:57;;;;;;;5.55;3.38;;;;;;;;;;5068242;28;20475;-88
2022/12/29 14:53:50;;;;;;;5.60;3.55;;;;;;;;;;5071252;28;20123;-86
2022/12/29 14:56:18;;;;;;;4.32;3.90;;;;;;;;;;5100722;28;20025;-86
2022/12/29 14:58:43;;;;;;;6.88;4.68;;;;;;;;;;5072675;28;20388;-90
2022/12/29 15:01:38;;;;;;;13.18;7.78;;;;;;;;;;5072136;28;20032;-87
2022/12/29 15:04:26;;;;;;;10.88;5.70;;;;;;;;;;5065544;28;20033;-86
2022/12/29 15:06:53;;;;;;;8.50;5.60;;;;;;;;;;5067880;28;20111;-87
2022/12/29 15:09:37;;;;;;;9.63;4.88;;;;;;;;;;5070954;28;20020;-87
2022/12/29 15:12:30;;;;;;;7.88;5.55;;;;;;;;;;5068924;28;20036;-86
2022/12/29 15:15:01;;;;;;;12.07;6.35;;;;;;;;;;5100454;28;20020;-87
2022/12/29 15:17:32;;;;;;;10.23;5.95;;;;;;;;;;5100011;28;20496;-87
2022/12/29 15:20:00;;;;;;;8.35;5.05;;;;;;;;;;5066097;28;20488;-87
2022/12/29 15:22:27;;;;;;;6.10;4.80;;;;;;;;;;5069561;28;20049;-87
2022/12/29 15:24:54;;;;;;;7.82;4.13;;;;;;;;;;5085084;28;20113;-87
2022/12/29 15:27:22;;;;;;;6.22;4.28;;;;;;;;;;5070675;28;20025;-83
2022/12/29 15:29:56;;;;;;;4.43;3.10;;;;;;;;;;5068361;28;20082;-86
2022/12/29 15:32:24;;;;;;;4.45;3.22;;;;;;;;;;5065955;28;20056;-86
2022/12/29 15:34:55;;;;;;;6.28;5.32;;;;;;;;;;5068331;28;20021;-85
2022/12/29 15:37:27;;;;;;;3.95;3.13;;;;;;;;;;5070087;28;20082;-87
2022/12/29 15:39:54;;;;;;;7.63;4.65;;;;;;;;;;5073405;28;20028;-86
2022/12/29 15:42:42;;;;;;;4.82;3.53;;;;;;;;;;5069085;28;20032;-85
2022/12/29 15:45:13;;;;;;;5.90;3.78;;;;;;;;;;5071546;28;20384;-82
2022/12/29 15:47:41;;;;;;;11.32;5.00;;;;;;;;;;5071069;28;20531;-85
2022/12/29 15:50:35;;;;;;;6.95;4.97;;;;;;;;;;5072980;28;20039;-85
2022/12/29 15:53:02;;;;;;;7.05;4.65;;;;;;;;;;5071415;28;20070;-87
2022/12/29 15:55:35;;;;;;;10.00;5.60;;;;;;;;;;5073805;28;20112;-87
2022/12/29 15:58:04;;;;;;;12.80;6.53;;;;;;;;;;5088457;28;20028;-86
2022/12/29 16:00:32;;;;;;;8.88;5.97;;;;;;;;;;5089376;28;20038;-86